Veersedijk — PBCX — position and weather

sailwx.info

Track history (hours):
 
Tides and Currents Weather Stations Pressure Air Temp Water Temp Dewpoint Dewpoint Depression Visibility Wind Speed Wind Dir Waves Ship Positions

Veersedijk

Last reported at 2017-Apr-19 20:54 UTC. Time now 2017-Apr-26 06:09 UTC.
Position N 52°52' E 004°20'.

Length 132 m; draft 5.2 m.

Type: Cargo ship. MMSI: 244268000.

Date/timePositionNaut miles runAvg speedWind from/ knotsBaromVisibWave heightAir tempDewpointWater temp
2017-Apr-19 20:54N 52°52' E 004°20'512.4
2017-Apr-19 20:30N 52°47' E 004°20'612.1
2017-Apr-19 20:00N 52°41' E 004°20'611.4
2017-Apr-19 19:30N 52°36' E 004°21'5 9.3
2017-Apr-19 19:00N 52°32' E 004°26'510.0
2017-Apr-19 18:30N 52°28' E 004°31'3 5.5
2017-Apr-19 18:00N 52°28' E 004°35'3 6.1
2017-Apr-19 17:30N 52°28' E 004°31'611.4
2017-Apr-19 17:00N 52°32' E 004°23'611.7
2017-Apr-19 16:30N 52°36' E 004°17'4 8.4
2017-Apr-19 16:00N 52°39' E 004°12'1 3.0
2017-Apr-19 15:30N 52°40' E 004°11'1 2.5
2017-Apr-19 15:00N 52°42' E 004°12'1 1.2
2017-Apr-19 14:30N 52°42' E 004°12'3 3.0
2017-Apr-19 13:30N 52°39' E 004°12'1 1.4
2017-Apr-19 12:49N 52°39' E 004°14'1 2.3
2017-Apr-19 12:30N 52°39' E 004°14'1 2.0
2017-Apr-19 12:00N 52°39' E 004°16'2 3.2
2017-Apr-19 11:30N 52°39' E 004°18'1 1.1
2017-Apr-19 11:00N 52°38' E 004°17'2 3.1
2017-Apr-19 10:30N 52°37' E 004°18'510.8
2017-Apr-19 10:00N 52°33' E 004°24'5 9.9
2017-Apr-19 09:30N 52°30' E 004°29'4 8.1
2017-Apr-19 09:00N 52°28' E 004°35'0 0.1
2017-Apr-19 08:30N 52°28' E 004°35'0 0.0
2017-Apr-19 08:00N 52°28' E 004°35'0 0.0
2017-Apr-19 07:30N 52°28' E 004°35'0 0.0
2017-Apr-19 07:00N 52°28' E 004°35'0 0.0
2017-Apr-19 06:30N 52°28' E 004°35'0 0.0
2017-Apr-19 06:00N 52°28' E 004°35'0 0.0
2017-Apr-19 05:30N 52°28' E 004°35'0 0.0
2017-Apr-19 05:00N 52°28' E 004°35'0 0.0
2017-Apr-19 04:30N 52°28' E 004°35'0 0.0
2017-Apr-19 04:00N 52°28' E 004°35'0 0.0
2017-Apr-19 03:30N 52°28' E 004°35'0 0.0
2017-Apr-19 03:00N 52°28' E 004°35'0 0.0
2017-Apr-19 02:30N 52°28' E 004°35'0 0.0
2017-Apr-19 02:00N 52°28' E 004°35'0 0.0
2017-Apr-19 01:30N 52°28' E 004°35'0 0.0
2017-Apr-19 01:00N 52°28' E 004°35'0 0.0
2017-Apr-19 00:30N 52°28' E 004°35'0 0.0
2017-Apr-19 00:00N 52°28' E 004°35'0 0.0
2017-Apr-18 23:30N 52°28' E 004°35'0 0.0
2017-Apr-18 23:00N 52°28' E 004°35'0 0.0
2017-Apr-18 22:30N 52°28' E 004°35'0 0.0
2017-Apr-18 22:00N 52°28' E 004°35'0 0.0
2017-Apr-18 21:30N 52°28' E 004°35'0 0.0
2017-Apr-18 21:00N 52°28' E 004°35'0 0.0
2017-Apr-18 20:30N 52°28' E 004°35'0 0.0
2017-Apr-18 20:00N 52°28' E 004°35'0 0.0
2017-Apr-18 19:29N 52°28' E 004°35'0 0.0
2017-Apr-18 19:00N 52°28' E 004°35'0 0.0
2017-Apr-18 18:30N 52°28' E 004°35'0 0.0
2017-Apr-18 18:00N 52°28' E 004°35'0 0.0
2017-Apr-18 17:30N 52°28' E 004°35'1 1.7
2017-Apr-18 17:01N 52°28' E 004°34'4 7.3
2017-Apr-18 16:30N 52°30' E 004°29'510.5
2017-Apr-18 16:00N 52°34' E 004°23'510.4
2017-Apr-18 15:30N 52°37' E 004°16'4 7.1
2017-Apr-18 15:00N 52°38' E 004°11'0 0.8
2017-Apr-18 14:30N 52°39' E 004°11'1 1.3
2017-Apr-18 13:30N 52°40' E 004°11'0 0.4
2017-Apr-18 13:00N 52°40' E 004°11'1 1.9
2017-Apr-18 12:30N 52°41' E 004°12'2 3.9
2017-Apr-18 12:00N 52°43' E 004°13'2 3.3
2017-Apr-18 11:30N 52°44' E 004°11'0 0.6
2017-Apr-18 11:00N 52°44' E 004°11'2 3.1
2017-Apr-18 10:26N 52°43' E 004°13'1 2.4
2017-Apr-18 10:00N 52°42' E 004°13'1 2.5
2017-Apr-18 09:30N 52°40' E 004°14'3 5.7
2017-Apr-18 09:01N 52°38' E 004°17'510.4
2017-Apr-18 08:30N 52°34' E 004°22'710.4
2017-Apr-18 07:51N 52°29' E 004°29'3 9.0
2017-Apr-18 07:30N 52°28' E 004°34'1 1.4
2017-Apr-18 07:00N 52°28' E 004°35'0 0.0
2017-Apr-18 06:30N 52°28' E 004°35'0 0.0
2017-Apr-18 06:00N 52°28' E 004°35'0 0.0
2017-Apr-18 05:30N 52°28' E 004°35'0 0.0
2017-Apr-18 05:01N 52°28' E 004°35'0 0.0
2017-Apr-18 04:30N 52°28' E 004°35'0 0.0
2017-Apr-18 04:00N 52°28' E 004°35'0 0.0
2017-Apr-18 03:31N 52°28' E 004°35'0 0.0
2017-Apr-18 03:00N 52°28' E 004°35'0 0.0
2017-Apr-18 02:31N 52°28' E 004°35'0 0.0
2017-Apr-18 02:00N 52°28' E 004°35'0 0.0
2017-Apr-18 01:30N 52°28' E 004°35'0 0.0
2017-Apr-18 01:01N 52°28' E 004°35'0 0.0
2017-Apr-18 00:30N 52°28' E 004°35'0 0.0
2017-Apr-18 00:00N 52°28' E 004°35'0 0.0
2017-Apr-17 23:31N 52°28' E 004°35'0 0.0
2017-Apr-17 23:00N 52°28' E 004°35'0 0.0
2017-Apr-17 22:31N 52°28' E 004°35'0 0.0
2017-Apr-17 22:01N 52°28' E 004°35'0 0.0
2017-Apr-17 21:31N 52°28' E 004°35'0 0.0
2017-Apr-17 21:01N 52°28' E 004°35'0 0.0
2017-Apr-17 20:30N 52°28' E 004°35'0 0.0
2017-Apr-17 20:00N 52°28' E 004°35'0 0.0
2017-Apr-17 19:30N 52°28' E 004°35'0 0.0
2017-Apr-17 19:00N 52°28' E 004°35'0 0.0
2017-Apr-17 18:30N 52°28' E 004°35'0 0.0
2017-Apr-17 18:00N 52°28' E 004°35'0 0.0
2017-Apr-17 17:30N 52°28' E 004°35'0 0.0
2017-Apr-17 17:00N 52°28' E 004°35'0 0.0
2017-Apr-17 16:30N 52°28' E 004°35'0 0.0
2017-Apr-17 16:00N 52°28' E 004°35'0 0.0
2017-Apr-17 15:30N 52°28' E 004°35'0 0.0
2017-Apr-17 15:00N 52°28' E 004°35'0 0.0
2017-Apr-17 14:00N 52°28' E 004°35'0 0.0
2017-Apr-17 13:30N 52°28' E 004°35'0 0.0
2017-Apr-17 13:00N 52°28' E 004°35'0 0.0
2017-Apr-17 12:30N 52°28' E 004°35'0 0.0
2017-Apr-17 11:30N 52°28' E 004°35'0 0.0
2017-Apr-17 11:00N 52°28' E 004°35'0 0.0
2017-Apr-17 10:30N 52°28' E 004°35'0 0.0
2017-Apr-17 10:00N 52°28' E 004°35'0 0.0
2017-Apr-17 09:30N 52°28' E 004°35'0 0.0
2017-Apr-17 09:00N 52°28' E 004°35'0 0.0
2017-Apr-17 08:30N 52°28' E 004°35'0 0.0
2017-Apr-17 08:00N 52°28' E 004°35'0 0.0
2017-Apr-17 07:30N 52°28' E 004°35'0 0.0
2017-Apr-17 07:00N 52°28' E 004°35'0 0.0
2017-Apr-17 06:31N 52°28' E 004°35'0 0.0
2017-Apr-17 06:00N 52°28' E 004°35'0 0.0
2017-Apr-17 05:30N 52°28' E 004°35'0 0.0
2017-Apr-17 05:00N 52°28' E 004°35'0 0.0
2017-Apr-17 04:30N 52°28' E 004°35'0 0.0
2017-Apr-17 04:00N 52°28' E 004°35'0 0.0
2017-Apr-17 03:30N 52°28' E 004°35'0 0.0
2017-Apr-17 03:00N 52°28' E 004°35'0 0.0
2017-Apr-17 02:30N 52°28' E 004°35'0 0.0
2017-Apr-17 02:01N 52°28' E 004°35'0 0.0
2017-Apr-17 01:30N 52°28' E 004°35'0 0.0
2017-Apr-17 01:00N 52°28' E 004°35'0 0.0
2017-Apr-17 00:30N 52°28' E 004°35'0 0.0
2017-Apr-17 00:00N 52°28' E 004°35'0 0.0
2017-Apr-16 23:30N 52°28' E 004°35'0 0.0
2017-Apr-16 23:00N 52°28' E 004°35'0 0.0
2017-Apr-16 22:30N 52°28' E 004°35'0 0.0
2017-Apr-16 22:00N 52°28' E 004°35'0 0.0
2017-Apr-16 21:30N 52°28' E 004°35'0 0.0
2017-Apr-16 21:00N 52°28' E 004°35'0 0.0
2017-Apr-16 20:30N 52°28' E 004°35'0 0.0
2017-Apr-16 20:00N 52°28' E 004°35'0 0.0
2017-Apr-16 19:30N 52°28' E 004°35'0 0.0
2017-Apr-16 19:00N 52°28' E 004°35'0 0.0
2017-Apr-16 18:30N 52°28' E 004°35'0 0.0
2017-Apr-16 18:00N 52°28' E 004°35'0 0.0
2017-Apr-16 17:30N 52°28' E 004°35'0 0.0
2017-Apr-16 17:00N 52°28' E 004°35'0 0.0
2017-Apr-16 16:30N 52°28' E 004°35'0 0.0
2017-Apr-16 16:00N 52°28' E 004°35'0 0.0
2017-Apr-16 15:30N 52°28' E 004°35'0 0.0
2017-Apr-16 15:00N 52°28' E 004°35'0 0.0
2017-Apr-16 14:00N 52°28' E 004°35'0 0.0
2017-Apr-16 13:30N 52°28' E 004°35'0 0.0
2017-Apr-16 13:00N 52°28' E 004°35'0 0.0
2017-Apr-16 12:30N 52°28' E 004°35'0 0.0
2017-Apr-16 12:00N 52°28' E 004°35'0 0.0
2017-Apr-16 11:30N 52°28' E 004°35'0 0.0
2017-Apr-16 11:01N 52°28' E 004°35'0 0.0
2017-Apr-16 10:30N 52°28' E 004°35'0 0.0
2017-Apr-16 10:00N 52°28' E 004°35'0 0.0
2017-Apr-16 09:30N 52°28' E 004°35'0 0.0
2017-Apr-16 09:00N 52°28' E 004°35'0 0.0
2017-Apr-16 08:30N 52°28' E 004°35'0 0.0
2017-Apr-16 08:00N 52°28' E 004°35'0 0.0
2017-Apr-16 07:30N 52°28' E 004°35'0 0.0
2017-Apr-16 07:00N 52°28' E 004°35'0 0.0
2017-Apr-16 06:30N 52°28' E 004°35'0 0.0
2017-Apr-16 06:01N 52°28' E 004°35'0 0.0
2017-Apr-16 05:30N 52°28' E 004°35'0 0.0
2017-Apr-16 05:00N 52°28' E 004°35'0 0.0
2017-Apr-16 04:30N 52°28' E 004°35'0 0.0
2017-Apr-16 04:00N 52°28' E 004°35'0 0.0
2017-Apr-16 03:31N 52°28' E 004°35'0 0.0
2017-Apr-16 03:00N 52°28' E 004°35'0 0.0
2017-Apr-16 02:30N 52°28' E 004°35'0 0.0
2017-Apr-16 02:00N 52°28' E 004°35'0 0.0
2017-Apr-16 01:30N 52°28' E 004°35'0 0.0
2017-Apr-16 01:00N 52°28' E 004°35'0 0.0
2017-Apr-16 00:30N 52°28' E 004°35'0 0.0
2017-Apr-16 00:00N 52°28' E 004°35'0 0.0
2017-Apr-15 23:30N 52°28' E 004°35'0 0.0
2017-Apr-15 23:00N 52°28' E 004°35'0 0.0
2017-Apr-15 22:31N 52°28' E 004°35'0 0.0
2017-Apr-15 22:00N 52°28' E 004°35'0 0.0
2017-Apr-15 21:30N 52°28' E 004°35'0 0.0
2017-Apr-15 21:00N 52°28' E 004°35'0 0.0
2017-Apr-15 20:30N 52°28' E 004°35'0 0.0
2017-Apr-15 20:00N 52°28' E 004°35'0 0.0
2017-Apr-15 19:30N 52°28' E 004°35'0 0.0
2017-Apr-15 19:01N 52°28' E 004°35'0 0.0
2017-Apr-15 18:30N 52°28' E 004°35'0 0.0
2017-Apr-15 18:00N 52°28' E 004°35'0 0.0
2017-Apr-15 17:30N 52°28' E 004°35'0 0.0
2017-Apr-15 17:00N 52°28' E 004°35'0 0.0
2017-Apr-15 16:30N 52°28' E 004°35'0 0.0
2017-Apr-15 16:00N 52°28' E 004°35'0 0.0
2017-Apr-15 15:30N 52°28' E 004°35'0 0.0
2017-Apr-15 15:00N 52°28' E 004°35'0 0.0
2017-Apr-15 14:00N 52°28' E 004°35'0 0.0
2017-Apr-15 13:30N 52°28' E 004°35'0 0.0
2017-Apr-15 13:00N 52°28' E 004°35'0 0.0
2017-Apr-15 12:31N 52°28' E 004°35'0 0.0
2017-Apr-15 12:00N 52°28' E 004°35'0 0.0
2017-Apr-15 11:30N 52°28' E 004°35'0 0.0
2017-Apr-15 11:00N 52°28' E 004°35'0 0.0
2017-Apr-15 10:30N 52°28' E 004°35'0 0.0
2017-Apr-15 10:00N 52°28' E 004°35'0 0.0
2017-Apr-15 09:30N 52°28' E 004°35'0 0.0
2017-Apr-15 09:00N 52°28' E 004°35'0 0.0
2017-Apr-15 08:30N 52°28' E 004°35'0 0.0
2017-Apr-15 07:59N 52°28' E 004°35'0 0.0
2017-Apr-15 07:30N 52°28' E 004°35'0 0.0
2017-Apr-15 07:00N 52°28' E 004°35'0 0.0
2017-Apr-15 06:30N 52°28' E 004°35'0 0.0
2017-Apr-15 06:00N 52°28' E 004°35'0 0.0
2017-Apr-15 05:30N 52°28' E 004°35'0 0.0
2017-Apr-15 04:30N 52°28' E 004°35'0 0.0
2017-Apr-15 04:00N 52°28' E 004°35'0 0.0
2017-Apr-15 03:30N 52°28' E 004°35'0 0.0
2017-Apr-15 03:00N 52°28' E 004°35'0 0.0
2017-Apr-15 02:30N 52°28' E 004°35'0 0.0
2017-Apr-15 01:30N 52°28' E 004°35'0 0.0
2017-Apr-15 01:00N 52°28' E 004°35'0 0.0
2017-Apr-15 00:30N 52°28' E 004°35'0 0.0
2017-Apr-15 00:01N 52°28' E 004°35'0 0.0
2017-Apr-14 23:29N 52°28' E 004°35'0 0.0
2017-Apr-14 23:01N 52°28' E 004°35'0 0.0
2017-Apr-14 22:30N 52°28' E 004°35'0 0.0
2017-Apr-14 22:00N 52°28' E 004°35'0 0.0
2017-Apr-14 21:30N 52°28' E 004°35'0 0.0
2017-Apr-14 21:00N 52°28' E 004°35'0 0.0
2017-Apr-14 20:30N 52°28' E 004°35'0 0.0
2017-Apr-14 20:00N 52°28' E 004°35'0 0.0
2017-Apr-14 19:30N 52°28' E 004°35'0 0.0
2017-Apr-14 19:01N 52°28' E 004°35'0 0.0
2017-Apr-14 18:30N 52°28' E 004°35'0 0.0
2017-Apr-14 18:00N 52°28' E 004°35'0 0.0
2017-Apr-14 17:29N 52°28' E 004°35'0 0.0
2017-Apr-14 17:00N 52°28' E 004°35'0 0.0
2017-Apr-14 16:30N 52°28' E 004°35'0 0.0
2017-Apr-14 16:00N 52°28' E 004°35'0 0.0
2017-Apr-14 15:30N 52°28' E 004°35'0 0.0
2017-Apr-14 15:00N 52°28' E 004°35'0 0.0
2017-Apr-14 14:31N 52°28' E 004°35'0 0.0
2017-Apr-14 13:31N 52°28' E 004°35'0 0.0
2017-Apr-14 13:00N 52°28' E 004°35'0 0.0
2017-Apr-14 12:30N 52°28' E 004°35'0 0.1
2017-Apr-14 12:00N 52°28' E 004°35'0 0.3
2017-Apr-14 11:30N 52°28' E 004°36'0 0.1
2017-Apr-14 11:00N 52°28' E 004°36'0 0.3
2017-Apr-14 10:30N 52°28' E 004°35'0 0.0
2017-Apr-14 10:00N 52°28' E 004°35'0 0.0
2017-Apr-14 09:31N 52°28' E 004°35'0 0.0
2017-Apr-14 09:00N 52°28' E 004°35'0 0.0
2017-Apr-14 08:30N 52°28' E 004°35'0 0.0
2017-Apr-14 08:00N 52°28' E 004°35'0 0.0
2017-Apr-14 07:30N 52°28' E 004°35'0 0.0
2017-Apr-14 07:00N 52°28' E 004°35'0 0.0
2017-Apr-14 06:30N 52°28' E 004°35'0 0.0
2017-Apr-14 06:00N 52°28' E 004°35'0 0.0
2017-Apr-14 05:30N 52°28' E 004°35'0 0.0
2017-Apr-14 04:59N 52°28' E 004°35'0 0.0
2017-Apr-14 04:30N 52°28' E 004°35'0 0.0
2017-Apr-14 04:00N 52°28' E 004°35'0 0.0
2017-Apr-14 03:30N 52°28' E 004°35'0 0.0
2017-Apr-14 03:01N 52°28' E 004°35'0 0.0
2017-Apr-14 02:30N 52°28' E 004°35'0 0.0
2017-Apr-14 02:01N 52°28' E 004°35'0 0.0
2017-Apr-14 01:30N 52°28' E 004°35'0 0.0
2017-Apr-14 01:00N 52°28' E 004°35'0 0.0
2017-Apr-14 00:30N 52°28' E 004°35'0 0.0
2017-Apr-14 00:00N 52°28' E 004°35'0 0.0
2017-Apr-13 23:30N 52°28' E 004°35'0 0.0
2017-Apr-13 23:00N 52°28' E 004°35'0 0.0
2017-Apr-13 22:30N 52°28' E 004°35'0 0.0
2017-Apr-13 22:00N 52°28' E 004°35'0 0.0
2017-Apr-13 21:30N 52°28' E 004°35'0 0.0
2017-Apr-13 21:00N 52°28' E 004°35'0 0.0
2017-Apr-13 20:30N 52°28' E 004°35'0 0.0
2017-Apr-13 20:00N 52°28' E 004°35'0 0.0
2017-Apr-13 19:30N 52°28' E 004°35'0 0.0
2017-Apr-13 19:00N 52°28' E 004°35'0 0.0
2017-Apr-13 18:30N 52°28' E 004°35'0 0.0
2017-Apr-13 18:00N 52°28' E 004°35'0 0.0
2017-Apr-13 17:30N 52°28' E 004°35'0 0.0
2017-Apr-13 17:00N 52°28' E 004°35'0 0.0
2017-Apr-13 16:30N 52°28' E 004°35'0 0.0
2017-Apr-13 16:00N 52°28' E 004°35'0 0.0
2017-Apr-13 15:31N 52°28' E 004°35'0 0.0
2017-Apr-13 15:01N 52°28' E 004°35'0 0.0
2017-Apr-13 14:31N 52°28' E 004°35'0 0.0
2017-Apr-13 13:30N 52°28' E 004°35'0 0.0
2017-Apr-13 13:00N 52°28' E 004°35'0 0.0
2017-Apr-13 12:30N 52°28' E 004°35'0 0.0
2017-Apr-13 12:00N 52°28' E 004°35'0 0.0
2017-Apr-13 11:30N 52°28' E 004°35'0 0.0
2017-Apr-13 11:00N 52°28' E 004°35'0 0.0
2017-Apr-13 10:30N 52°28' E 004°35'0 0.0
2017-Apr-13 10:00N 52°28' E 004°35'0 0.0
2017-Apr-13 09:30N 52°28' E 004°35'0 0.0
2017-Apr-13 09:01N 52°28' E 004°35'0 0.0
2017-Apr-13 08:31N 52°28' E 004°35'0 0.0
2017-Apr-13 08:01N 52°28' E 004°35'0 0.0
2017-Apr-13 07:30N 52°28' E 004°35'0 0.0
2017-Apr-13 07:01N 52°28' E 004°35'0 0.0
2017-Apr-13 06:30N 52°28' E 004°35'0 0.0
2017-Apr-13 06:00N 52°28' E 004°35'0 0.0
2017-Apr-13 05:30N 52°28' E 004°35'0 0.0
2017-Apr-13 05:00N 52°28' E 004°35'0 0.0
2017-Apr-13 04:30N 52°28' E 004°35'0 0.0
2017-Apr-13 04:00N 52°28' E 004°35'0 0.0
2017-Apr-13 03:30N 52°28' E 004°35'0 0.0
2017-Apr-13 03:00N 52°28' E 004°35'0 0.0
2017-Apr-13 02:30N 52°28' E 004°35'0 0.0
2017-Apr-13 02:00N 52°28' E 004°35'0 0.0
2017-Apr-13 01:30N 52°28' E 004°35'0 0.0
2017-Apr-13 01:00N 52°28' E 004°35'0 0.0
2017-Apr-13 00:30N 52°28' E 004°35'0 0.0
2017-Apr-13 00:00N 52°28' E 004°35'0 0.0
2017-Apr-12 23:30N 52°28' E 004°35'0 0.0
2017-Apr-12 23:00N 52°28' E 004°35'0 0.0
2017-Apr-12 22:30N 52°28' E 004°35'0 0.0
2017-Apr-12 22:00N 52°28' E 004°35'0 0.0
2017-Apr-12 21:30N 52°28' E 004°35'0 0.0
2017-Apr-12 21:00N 52°28' E 004°35'0 0.0
2017-Apr-12 20:30N 52°28' E 004°35'0 0.0
2017-Apr-12 20:00N 52°28' E 004°35'0 0.0
2017-Apr-12 19:30N 52°28' E 004°35'0 0.0
2017-Apr-12 19:00N 52°28' E 004°35'0 0.0
2017-Apr-12 18:30N 52°28' E 004°35'0 0.0
2017-Apr-12 18:00N 52°28' E 004°35'0 0.0
2017-Apr-12 17:30N 52°28' E 004°35'0 0.0
2017-Apr-12 17:00N 52°28' E 004°35'0 0.0
2017-Apr-12 16:30N 52°28' E 004°35'0 0.0
2017-Apr-12 16:00N 52°28' E 004°35'0 0.0
2017-Apr-12 15:30N 52°28' E 004°35'0 0.0
2017-Apr-12 15:00N 52°28' E 004°35'0 0.0
2017-Apr-12 14:30N 52°28' E 004°35'0 0.0
2017-Apr-12 13:30N 52°28' E 004°35'0 0.0
2017-Apr-12 13:00N 52°28' E 004°35'0 0.0
2017-Apr-12 12:30N 52°28' E 004°35'0 0.0
2017-Apr-12 12:00N 52°28' E 004°35'0 0.0
2017-Apr-12 11:30N 52°28' E 004°35'0 0.0
2017-Apr-12 11:00N 52°28' E 004°35'0 0.0
2017-Apr-12 10:30N 52°28' E 004°35'0 0.0
2017-Apr-12 10:00N 52°28' E 004°35'0 0.0
2017-Apr-12 09:30N 52°28' E 004°35'0 0.0
2017-Apr-12 09:00N 52°28' E 004°35'0 0.0
2017-Apr-12 08:30N 52°28' E 004°35'0 0.0
2017-Apr-12 08:00N 52°28' E 004°35'0 0.0
2017-Apr-12 07:30N 52°28' E 004°35'0 0.0
2017-Apr-12 07:00N 52°28' E 004°35'0 0.0
2017-Apr-12 06:30N 52°28' E 004°35'0 0.0
2017-Apr-12 06:00N 52°28' E 004°35'0 0.0
2017-Apr-11 16:33N 52°28' E 004°35'0 0.0
2017-Apr-11 16:30N 52°28' E 004°35'0 0.0
2017-Apr-11 16:00N 52°28' E 004°35'0 0.0
2017-Apr-11 15:30N 52°28' E 004°35'0 0.0
2017-Apr-11 15:00N 52°28' E 004°35'0 0.0
2017-Apr-11 14:30N 52°28' E 004°35'0 0.0
2017-Apr-11 13:30N 52°28' E 004°35'0 0.0
2017-Apr-11 13:00N 52°28' E 004°35'0 0.0
2017-Apr-11 12:30N 52°28' E 004°35'0 0.0
2017-Apr-11 12:00N 52°28' E 004°35'0 0.0
2017-Apr-11 11:30N 52°28' E 004°35'0 0.0
2017-Apr-11 11:00N 52°28' E 004°35'0 0.0
2017-Apr-11 10:30N 52°28' E 004°35'0 0.0
2017-Apr-11 10:00N 52°28' E 004°35'0 0.0
2017-Apr-11 09:00N 52°28' E 004°35'0 0.0
2017-Apr-11 08:30N 52°28' E 004°35'0 0.0
2017-Apr-11 08:00N 52°28' E 004°35'0 0.0
2017-Apr-11 07:30N 52°28' E 004°35'0 0.0
2017-Apr-11 07:00N 52°28' E 004°35'0 0.0
2017-Apr-11 06:30N 52°28' E 004°35'0 0.0
2017-Apr-11 06:00N 52°28' E 004°35'0 0.0
2017-Apr-11 05:29N 52°28' E 004°35'0 0.0
2017-Apr-11 05:00N 52°28' E 004°35'0 0.0
2017-Apr-11 04:30N 52°28' E 004°35'0 0.0
2017-Apr-11 04:00N 52°28' E 004°35'0 0.0
2017-Apr-11 03:30N 52°28' E 004°35'0 0.0
2017-Apr-11 03:00N 52°28' E 004°35'0 0.0
2017-Apr-11 02:30N 52°28' E 004°35'0 0.0
2017-Apr-11 02:00N 52°28' E 004°35'0 0.0
2017-Apr-11 01:30N 52°28' E 004°35'0 0.0
2017-Apr-11 01:00N 52°28' E 004°35'0 0.0
2017-Apr-11 00:30N 52°28' E 004°35'0 0.0
2017-Apr-11 00:00N 52°28' E 004°35'0 0.0
2017-Apr-10 23:30N 52°28' E 004°35'0 0.0
2017-Apr-10 23:00N 52°28' E 004°35'0 0.0
2017-Apr-10 22:30N 52°28' E 004°35'0 0.0
2017-Apr-10 22:00N 52°28' E 004°35'0 0.0
2017-Apr-10 21:30N 52°28' E 004°35'0 0.0
2017-Apr-10 20:59N 52°28' E 004°35'0 0.0
2017-Apr-10 20:30N 52°28' E 004°35'0 0.0
2017-Apr-10 20:00N 52°28' E 004°35'0 0.0
2017-Apr-10 19:30N 52°28' E 004°35'0 0.0
2017-Apr-10 19:00N 52°28' E 004°35'0 0.0
2017-Apr-10 18:30N 52°28' E 004°35'0 0.0
2017-Apr-10 18:00N 52°28' E 004°35'0 0.0
2017-Apr-10 17:00N 52°28' E 004°35'0 0.0
2017-Apr-10 16:30N 52°28' E 004°35'0 0.0
2017-Apr-10 16:00N 52°28' E 004°35'0 0.0
2017-Apr-10 15:30N 52°28' E 004°35'0 0.0
2017-Apr-10 15:00N 52°28' E 004°35'0 0.0
2017-Apr-10 14:30N 52°28' E 004°35'0 0.0
2017-Apr-10 13:30N 52°28' E 004°35'0 0.0
2017-Apr-10 13:00N 52°28' E 004°35'0 0.0
2017-Apr-10 12:30N 52°28' E 004°35'0 0.0
2017-Apr-10 12:00N 52°28' E 004°35'0 0.0
2017-Apr-10 11:30N 52°28' E 004°35'0 0.0
2017-Apr-10 11:00N 52°28' E 004°35'0 0.0
2017-Apr-10 10:30N 52°28' E 004°35'0 0.0
2017-Apr-10 10:00N 52°28' E 004°35'0 0.0
2017-Apr-10 09:30N 52°28' E 004°35'0 0.0
2017-Apr-10 09:00N 52°28' E 004°35'0 0.0
2017-Apr-10 08:30N 52°28' E 004°35'0 0.0
2017-Apr-10 08:00N 52°28' E 004°35'0 0.0
2017-Apr-10 07:30N 52°28' E 004°35'0 0.0
2017-Apr-10 07:00N 52°28' E 004°35'0 0.0
2017-Apr-10 06:30N 52°28' E 004°35'0 0.0
2017-Apr-10 06:00N 52°28' E 004°35'0 0.0
2017-Apr-10 05:30N 52°28' E 004°35'0 0.0
2017-Apr-10 05:00N 52°28' E 004°35'0 0.0
2017-Apr-10 04:30N 52°28' E 004°35'0 0.0
2017-Apr-10 04:00N 52°28' E 004°35'0 0.0
2017-Apr-10 03:30N 52°28' E 004°35'0 0.0
2017-Apr-10 03:00N 52°28' E 004°35'0 0.0
2017-Apr-10 02:30N 52°28' E 004°35'0 0.0
2017-Apr-10 02:00N 52°28' E 004°35'0 0.0
2017-Apr-10 01:30N 52°28' E 004°35'0 0.0
2017-Apr-10 01:00N 52°28' E 004°35'0 0.0
2017-Apr-10 00:30N 52°28' E 004°35'0 0.0
2017-Apr-10 00:00N 52°28' E 004°35'0 0.0
2017-Apr-09 23:30N 52°28' E 004°35'0 0.0
2017-Apr-09 23:00N 52°28' E 004°35'0 0.0
2017-Apr-09 22:30N 52°28' E 004°35'0 0.0
2017-Apr-09 22:00N 52°28' E 004°35'0 0.0
2017-Apr-09 21:30N 52°28' E 004°35'0 0.0
2017-Apr-09 21:00N 52°28' E 004°35'  
Track history (hours):
 
Tides and Currents Weather Stations Pressure Air Temp Water Temp Dewpoint Dewpoint Depression Visibility Wind Speed Wind Dir Waves Ship Positions

Veersedijk

Last reported at 2017-Apr-19 20:54 UTC. Time now 2017-Apr-26 06:09 UTC.
Position N 52°52' E 004°20'.

Length 132 m; draft 5.2 m.

Type: Cargo ship. MMSI: 244268000.

Date/timePositionNaut miles runAvg speedWind from/ knotsBaromVisibWave heightAir tempDewpointWater temp
2017-Apr-19 20:54N 52°52' E 004°20'512.4
2017-Apr-19 20:30N 52°47' E 004°20'612.1
2017-Apr-19 20:00N 52°41' E 004°20'611.4
2017-Apr-19 19:30N 52°36' E 004°21'5 9.3
2017-Apr-19 19:00N 52°32' E 004°26'510.0
2017-Apr-19 18:30N 52°28' E 004°31'3 5.5
2017-Apr-19 18:00N 52°28' E 004°35'3 6.1
2017-Apr-19 17:30N 52°28' E 004°31'611.4
2017-Apr-19 17:00N 52°32' E 004°23'611.7
2017-Apr-19 16:30N 52°36' E 004°17'4 8.4
2017-Apr-19 16:00N 52°39' E 004°12'1 3.0
2017-Apr-19 15:30N 52°40' E 004°11'1 2.5
2017-Apr-19 15:00N 52°42' E 004°12'1 1.2
2017-Apr-19 14:30N 52°42' E 004°12'3 3.0
2017-Apr-19 13:30N 52°39' E 004°12'1 1.4
2017-Apr-19 12:49N 52°39' E 004°14'1 2.3
2017-Apr-19 12:30N 52°39' E 004°14'1 2.0
2017-Apr-19 12:00N 52°39' E 004°16'2 3.2
2017-Apr-19 11:30N 52°39' E 004°18'1 1.1
2017-Apr-19 11:00N 52°38' E 004°17'2 3.1
2017-Apr-19 10:30N 52°37' E 004°18'510.8
2017-Apr-19 10:00N 52°33' E 004°24'5 9.9
2017-Apr-19 09:30N 52°30' E 004°29'4 8.1
2017-Apr-19 09:00N 52°28' E 004°35'0 0.1
2017-Apr-19 08:30N 52°28' E 004°35'0 0.0
2017-Apr-19 08:00N 52°28' E 004°35'0 0.0
2017-Apr-19 07:30N 52°28' E 004°35'0 0.0
2017-Apr-19 07:00N 52°28' E 004°35'0 0.0
2017-Apr-19 06:30N 52°28' E 004°35'0 0.0
2017-Apr-19 06:00N 52°28' E 004°35'0 0.0
2017-Apr-19 05:30N 52°28' E 004°35'0 0.0
2017-Apr-19 05:00N 52°28' E 004°35'0 0.0
2017-Apr-19 04:30N 52°28' E 004°35'0 0.0
2017-Apr-19 04:00N 52°28' E 004°35'0 0.0
2017-Apr-19 03:30N 52°28' E 004°35'0 0.0
2017-Apr-19 03:00N 52°28' E 004°35'0 0.0
2017-Apr-19 02:30N 52°28' E 004°35'0 0.0
2017-Apr-19 02:00N 52°28' E 004°35'0 0.0
2017-Apr-19 01:30N 52°28' E 004°35'0 0.0
2017-Apr-19 01:00N 52°28' E 004°35'0 0.0
2017-Apr-19 00:30N 52°28' E 004°35'0 0.0
2017-Apr-19 00:00N 52°28' E 004°35'0 0.0
2017-Apr-18 23:30N 52°28' E 004°35'0 0.0
2017-Apr-18 23:00N 52°28' E 004°35'0 0.0
2017-Apr-18 22:30N 52°28' E 004°35'0 0.0
2017-Apr-18 22:00N 52°28' E 004°35'0 0.0
2017-Apr-18 21:30N 52°28' E 004°35'0 0.0
2017-Apr-18 21:00N 52°28' E 004°35'0 0.0
2017-Apr-18 20:30N 52°28' E 004°35'0 0.0
2017-Apr-18 20:00N 52°28' E 004°35'0 0.0
2017-Apr-18 19:29N 52°28' E 004°35'0 0.0
2017-Apr-18 19:00N 52°28' E 004°35'0 0.0
2017-Apr-18 18:30N 52°28' E 004°35'0 0.0
2017-Apr-18 18:00N 52°28' E 004°35'0 0.0
2017-Apr-18 17:30N 52°28' E 004°35'1 1.7
2017-Apr-18 17:01N 52°28' E 004°34'4 7.3
2017-Apr-18 16:30N 52°30' E 004°29'510.5
2017-Apr-18 16:00N 52°34' E 004°23'510.4
2017-Apr-18 15:30N 52°37' E 004°16'4 7.1
2017-Apr-18 15:00N 52°38' E 004°11'0 0.8
2017-Apr-18 14:30N 52°39' E 004°11'1 1.3
2017-Apr-18 13:30N 52°40' E 004°11'0 0.4
2017-Apr-18 13:00N 52°40' E 004°11'1 1.9
2017-Apr-18 12:30N 52°41' E 004°12'2 3.9
2017-Apr-18 12:00N 52°43' E 004°13'2 3.3
2017-Apr-18 11:30N 52°44' E 004°11'0 0.6
2017-Apr-18 11:00N 52°44' E 004°11'2 3.1
2017-Apr-18 10:26N 52°43' E 004°13'1 2.4
2017-Apr-18 10:00N 52°42' E 004°13'1 2.5
2017-Apr-18 09:30N 52°40' E 004°14'3 5.7
2017-Apr-18 09:01N 52°38' E 004°17'510.4
2017-Apr-18 08:30N 52°34' E 004°22'710.4
2017-Apr-18 07:51N 52°29' E 004°29'3 9.0
2017-Apr-18 07:30N 52°28' E 004°34'1 1.4
2017-Apr-18 07:00N 52°28' E 004°35'0 0.0
2017-Apr-18 06:30N 52°28' E 004°35'0 0.0
2017-Apr-18 06:00N 52°28' E 004°35'0 0.0
2017-Apr-18 05:30N 52°28' E 004°35'0 0.0
2017-Apr-18 05:01N 52°28' E 004°35'0 0.0
2017-Apr-18 04:30N 52°28' E 004°35'0 0.0
2017-Apr-18 04:00N 52°28' E 004°35'0 0.0
2017-Apr-18 03:31N 52°28' E 004°35'0 0.0
2017-Apr-18 03:00N 52°28' E 004°35'0 0.0
2017-Apr-18 02:31N 52°28' E 004°35'0 0.0
2017-Apr-18 02:00N 52°28' E 004°35'0 0.0
2017-Apr-18 01:30N 52°28' E 004°35'0 0.0
2017-Apr-18 01:01N 52°28' E 004°35'0 0.0
2017-Apr-18 00:30N 52°28' E 004°35'0 0.0
2017-Apr-18 00:00N 52°28' E 004°35'0 0.0
2017-Apr-17 23:31N 52°28' E 004°35'0 0.0
2017-Apr-17 23:00N 52°28' E 004°35'0 0.0
2017-Apr-17 22:31N 52°28' E 004°35'0 0.0
2017-Apr-17 22:01N 52°28' E 004°35'0 0.0
2017-Apr-17 21:31N 52°28' E 004°35'0 0.0
2017-Apr-17 21:01N 52°28' E 004°35'0 0.0
2017-Apr-17 20:30N 52°28' E 004°35'0 0.0
2017-Apr-17 20:00N 52°28' E 004°35'0 0.0
2017-Apr-17 19:30N 52°28' E 004°35'0 0.0
2017-Apr-17 19:00N 52°28' E 004°35'0 0.0
2017-Apr-17 18:30N 52°28' E 004°35'0 0.0
2017-Apr-17 18:00N 52°28' E 004°35'0 0.0
2017-Apr-17 17:30N 52°28' E 004°35'0 0.0
2017-Apr-17 17:00N 52°28' E 004°35'0 0.0
2017-Apr-17 16:30N 52°28' E 004°35'0 0.0
2017-Apr-17 16:00N 52°28' E 004°35'0 0.0
2017-Apr-17 15:30N 52°28' E 004°35'0 0.0
2017-Apr-17 15:00N 52°28' E 004°35'0 0.0
2017-Apr-17 14:00N 52°28' E 004°35'0 0.0
2017-Apr-17 13:30N 52°28' E 004°35'0 0.0
2017-Apr-17 13:00N 52°28' E 004°35'0 0.0
2017-Apr-17 12:30N 52°28' E 004°35'0 0.0
2017-Apr-17 11:30N 52°28' E 004°35'0 0.0
2017-Apr-17 11:00N 52°28' E 004°35'0 0.0
2017-Apr-17 10:30N 52°28' E 004°35'0 0.0
2017-Apr-17 10:00N 52°28' E 004°35'0 0.0
2017-Apr-17 09:30N 52°28' E 004°35'0 0.0
2017-Apr-17 09:00N 52°28' E 004°35'0 0.0
2017-Apr-17 08:30N 52°28' E 004°35'0 0.0
2017-Apr-17 08:00N 52°28' E 004°35'0 0.0
2017-Apr-17 07:30N 52°28' E 004°35'0 0.0
2017-Apr-17 07:00N 52°28' E 004°35'0 0.0
2017-Apr-17 06:31N 52°28' E 004°35'0 0.0
2017-Apr-17 06:00N 52°28' E 004°35'0 0.0
2017-Apr-17 05:30N 52°28' E 004°35'0 0.0
2017-Apr-17 05:00N 52°28' E 004°35'0 0.0
2017-Apr-17 04:30N 52°28' E 004°35'0 0.0
2017-Apr-17 04:00N 52°28' E 004°35'0 0.0
2017-Apr-17 03:30N 52°28' E 004°35'0 0.0
2017-Apr-17 03:00N 52°28' E 004°35'0 0.0
2017-Apr-17 02:30N 52°28' E 004°35'0 0.0
2017-Apr-17 02:01N 52°28' E 004°35'0 0.0
2017-Apr-17 01:30N 52°28' E 004°35'0 0.0
2017-Apr-17 01:00N 52°28' E 004°35'0 0.0
2017-Apr-17 00:30N 52°28' E 004°35'0 0.0
2017-Apr-17 00:00N 52°28' E 004°35'0 0.0
2017-Apr-16 23:30N 52°28' E 004°35'0 0.0
2017-Apr-16 23:00N 52°28' E 004°35'0 0.0
2017-Apr-16 22:30N 52°28' E 004°35'0 0.0
2017-Apr-16 22:00N 52°28' E 004°35'0 0.0
2017-Apr-16 21:30N 52°28' E 004°35'0 0.0
2017-Apr-16 21:00N 52°28' E 004°35'0 0.0
2017-Apr-16 20:30N 52°28' E 004°35'0 0.0
2017-Apr-16 20:00N 52°28' E 004°35'0 0.0
2017-Apr-16 19:30N 52°28' E 004°35'0 0.0
2017-Apr-16 19:00N 52°28' E 004°35'0 0.0
2017-Apr-16 18:30N 52°28' E 004°35'0 0.0
2017-Apr-16 18:00N 52°28' E 004°35'0 0.0
2017-Apr-16 17:30N 52°28' E 004°35'0 0.0
2017-Apr-16 17:00N 52°28' E 004°35'0 0.0
2017-Apr-16 16:30N 52°28' E 004°35'0 0.0
2017-Apr-16 16:00N 52°28' E 004°35'0 0.0
2017-Apr-16 15:30N 52°28' E 004°35'0 0.0
2017-Apr-16 15:00N 52°28' E 004°35'0 0.0
2017-Apr-16 14:00N 52°28' E 004°35'0 0.0
2017-Apr-16 13:30N 52°28' E 004°35'0 0.0
2017-Apr-16 13:00N 52°28' E 004°35'0 0.0
2017-Apr-16 12:30N 52°28' E 004°35'0 0.0
2017-Apr-16 12:00N 52°28' E 004°35'0 0.0
2017-Apr-16 11:30N 52°28' E 004°35'0 0.0
2017-Apr-16 11:01N 52°28' E 004°35'0 0.0
2017-Apr-16 10:30N 52°28' E 004°35'0 0.0
2017-Apr-16 10:00N 52°28' E 004°35'0 0.0
2017-Apr-16 09:30N 52°28' E 004°35'0 0.0
2017-Apr-16 09:00N 52°28' E 004°35'0 0.0
2017-Apr-16 08:30N 52°28' E 004°35'0 0.0
2017-Apr-16 08:00N 52°28' E 004°35'0 0.0
2017-Apr-16 07:30N 52°28' E 004°35'0 0.0
2017-Apr-16 07:00N 52°28' E 004°35'0 0.0
2017-Apr-16 06:30N 52°28' E 004°35'0 0.0
2017-Apr-16 06:01N 52°28' E 004°35'0 0.0
2017-Apr-16 05:30N 52°28' E 004°35'0 0.0
2017-Apr-16 05:00N 52°28' E 004°35'0 0.0
2017-Apr-16 04:30N 52°28' E 004°35'0 0.0
2017-Apr-16 04:00N 52°28' E 004°35'0 0.0
2017-Apr-16 03:31N 52°28' E 004°35'0 0.0
2017-Apr-16 03:00N 52°28' E 004°35'0 0.0
2017-Apr-16 02:30N 52°28' E 004°35'0 0.0
2017-Apr-16 02:00N 52°28' E 004°35'0 0.0
2017-Apr-16 01:30N 52°28' E 004°35'0 0.0
2017-Apr-16 01:00N 52°28' E 004°35'0 0.0
2017-Apr-16 00:30N 52°28' E 004°35'0 0.0
2017-Apr-16 00:00N 52°28' E 004°35'0 0.0
2017-Apr-15 23:30N 52°28' E 004°35'0 0.0
2017-Apr-15 23:00N 52°28' E 004°35'0 0.0
2017-Apr-15 22:31N 52°28' E 004°35'0 0.0
2017-Apr-15 22:00N 52°28' E 004°35'0 0.0
2017-Apr-15 21:30N 52°28' E 004°35'0 0.0
2017-Apr-15 21:00N 52°28' E 004°35'0 0.0
2017-Apr-15 20:30N 52°28' E 004°35'0 0.0
2017-Apr-15 20:00N 52°28' E 004°35'0 0.0
2017-Apr-15 19:30N 52°28' E 004°35'0 0.0
2017-Apr-15 19:01N 52°28' E 004°35'0 0.0
2017-Apr-15 18:30N 52°28' E 004°35'0 0.0
2017-Apr-15 18:00N 52°28' E 004°35'0 0.0
2017-Apr-15 17:30N 52°28' E 004°35'0 0.0
2017-Apr-15 17:00N 52°28' E 004°35'0 0.0
2017-Apr-15 16:30N 52°28' E 004°35'0 0.0
2017-Apr-15 16:00N 52°28' E 004°35'0 0.0
2017-Apr-15 15:30N 52°28' E 004°35'0 0.0
2017-Apr-15 15:00N 52°28' E 004°35'0 0.0
2017-Apr-15 14:00N 52°28' E 004°35'0 0.0
2017-Apr-15 13:30N 52°28' E 004°35'0 0.0
2017-Apr-15 13:00N 52°28' E 004°35'0 0.0
2017-Apr-15 12:31N 52°28' E 004°35'0 0.0
2017-Apr-15 12:00N 52°28' E 004°35'0 0.0
2017-Apr-15 11:30N 52°28' E 004°35'0 0.0
2017-Apr-15 11:00N 52°28' E 004°35'0 0.0
2017-Apr-15 10:30N 52°28' E 004°35'0 0.0
2017-Apr-15 10:00N 52°28' E 004°35'0 0.0
2017-Apr-15 09:30N 52°28' E 004°35'0 0.0
2017-Apr-15 09:00N 52°28' E 004°35'0 0.0
2017-Apr-15 08:30N 52°28' E 004°35'0 0.0
2017-Apr-15 07:59N 52°28' E 004°35'0 0.0
2017-Apr-15 07:30N 52°28' E 004°35'0 0.0
2017-Apr-15 07:00N 52°28' E 004°35'0 0.0
2017-Apr-15 06:30N 52°28' E 004°35'0 0.0
2017-Apr-15 06:00N 52°28' E 004°35'0 0.0
2017-Apr-15 05:30N 52°28' E 004°35'0 0.0
2017-Apr-15 04:30N 52°28' E 004°35'0 0.0
2017-Apr-15 04:00N 52°28' E 004°35'0 0.0
2017-Apr-15 03:30N 52°28' E 004°35'0 0.0
2017-Apr-15 03:00N 52°28' E 004°35'0 0.0
2017-Apr-15 02:30N 52°28' E 004°35'0 0.0
2017-Apr-15 01:30N 52°28' E 004°35'0 0.0
2017-Apr-15 01:00N 52°28' E 004°35'0 0.0
2017-Apr-15 00:30N 52°28' E 004°35'0 0.0
2017-Apr-15 00:01N 52°28' E 004°35'0 0.0
2017-Apr-14 23:29N 52°28' E 004°35'0 0.0
2017-Apr-14 23:01N 52°28' E 004°35'0 0.0
2017-Apr-14 22:30N 52°28' E 004°35'0 0.0
2017-Apr-14 22:00N 52°28' E 004°35'0 0.0
2017-Apr-14 21:30N 52°28' E 004°35'0 0.0
2017-Apr-14 21:00N 52°28' E 004°35'0 0.0
2017-Apr-14 20:30N 52°28' E 004°35'0 0.0
2017-Apr-14 20:00N 52°28' E 004°35'0 0.0
2017-Apr-14 19:30N 52°28' E 004°35'0 0.0
2017-Apr-14 19:01N 52°28' E 004°35'0 0.0
2017-Apr-14 18:30N 52°28' E 004°35'0 0.0
2017-Apr-14 18:00N 52°28' E 004°35'0 0.0
2017-Apr-14 17:29N 52°28' E 004°35'0 0.0
2017-Apr-14 17:00N 52°28' E 004°35'0 0.0
2017-Apr-14 16:30N 52°28' E 004°35'0 0.0
2017-Apr-14 16:00N 52°28' E 004°35'0 0.0
2017-Apr-14 15:30N 52°28' E 004°35'0 0.0
2017-Apr-14 15:00N 52°28' E 004°35'0 0.0
2017-Apr-14 14:31N 52°28' E 004°35'0 0.0
2017-Apr-14 13:31N 52°28' E 004°35'0 0.0
2017-Apr-14 13:00N 52°28' E 004°35'0 0.0
2017-Apr-14 12:30N 52°28' E 004°35'0 0.1
2017-Apr-14 12:00N 52°28' E 004°35'0 0.3
2017-Apr-14 11:30N 52°28' E 004°36'0 0.1
2017-Apr-14 11:00N 52°28' E 004°36'0 0.3
2017-Apr-14 10:30N 52°28' E 004°35'0 0.0
2017-Apr-14 10:00N 52°28' E 004°35'0 0.0
2017-Apr-14 09:31N 52°28' E 004°35'0 0.0
2017-Apr-14 09:00N 52°28' E 004°35'0 0.0
2017-Apr-14 08:30N 52°28' E 004°35'0 0.0
2017-Apr-14 08:00N 52°28' E 004°35'0 0.0
2017-Apr-14 07:30N 52°28' E 004°35'0 0.0
2017-Apr-14 07:00N 52°28' E 004°35'0 0.0
2017-Apr-14 06:30N 52°28' E 004°35'0 0.0
2017-Apr-14 06:00N 52°28' E 004°35'0 0.0
2017-Apr-14 05:30N 52°28' E 004°35'0 0.0
2017-Apr-14 04:59N 52°28' E 004°35'0 0.0
2017-Apr-14 04:30N 52°28' E 004°35'0 0.0
2017-Apr-14 04:00N 52°28' E 004°35'0 0.0
2017-Apr-14 03:30N 52°28' E 004°35'0 0.0
2017-Apr-14 03:01N 52°28' E 004°35'0 0.0
2017-Apr-14 02:30N 52°28' E 004°35'0 0.0
2017-Apr-14 02:01N 52°28' E 004°35'0 0.0
2017-Apr-14 01:30N 52°28' E 004°35'0 0.0
2017-Apr-14 01:00N 52°28' E 004°35'0 0.0
2017-Apr-14 00:30N 52°28' E 004°35'0 0.0
2017-Apr-14 00:00N 52°28' E 004°35'0 0.0
2017-Apr-13 23:30N 52°28' E 004°35'0 0.0
2017-Apr-13 23:00N 52°28' E 004°35'0 0.0
2017-Apr-13 22:30N 52°28' E 004°35'0 0.0
2017-Apr-13 22:00N 52°28' E 004°35'0 0.0
2017-Apr-13 21:30N 52°28' E 004°35'0 0.0
2017-Apr-13 21:00N 52°28' E 004°35'0 0.0
2017-Apr-13 20:30N 52°28' E 004°35'0 0.0
2017-Apr-13 20:00N 52°28' E 004°35'0 0.0
2017-Apr-13 19:30N 52°28' E 004°35'0 0.0
2017-Apr-13 19:00N 52°28' E 004°35'0 0.0
2017-Apr-13 18:30N 52°28' E 004°35'0 0.0
2017-Apr-13 18:00N 52°28' E 004°35'0 0.0
2017-Apr-13 17:30N 52°28' E 004°35'0 0.0
2017-Apr-13 17:00N 52°28' E 004°35'0 0.0
2017-Apr-13 16:30N 52°28' E 004°35'0 0.0
2017-Apr-13 16:00N 52°28' E 004°35'0 0.0
2017-Apr-13 15:31N 52°28' E 004°35'0 0.0
2017-Apr-13 15:01N 52°28' E 004°35'0 0.0
2017-Apr-13 14:31N 52°28' E 004°35'0 0.0
2017-Apr-13 13:30N 52°28' E 004°35'0 0.0
2017-Apr-13 13:00N 52°28' E 004°35'0 0.0
2017-Apr-13 12:30N 52°28' E 004°35'0 0.0
2017-Apr-13 12:00N 52°28' E 004°35'0 0.0
2017-Apr-13 11:30N 52°28' E 004°35'0 0.0
2017-Apr-13 11:00N 52°28' E 004°35'0 0.0
2017-Apr-13 10:30N 52°28' E 004°35'0 0.0
2017-Apr-13 10:00N 52°28' E 004°35'0 0.0
2017-Apr-13 09:30N 52°28' E 004°35'0 0.0
2017-Apr-13 09:01N 52°28' E 004°35'0 0.0
2017-Apr-13 08:31N 52°28' E 004°35'0 0.0
2017-Apr-13 08:01N 52°28' E 004°35'0 0.0
2017-Apr-13 07:30N 52°28' E 004°35'0 0.0
2017-Apr-13 07:01N 52°28' E 004°35'0 0.0
2017-Apr-13 06:30N 52°28' E 004°35'0 0.0
2017-Apr-13 06:00N 52°28' E 004°35'0 0.0
2017-Apr-13 05:30N 52°28' E 004°35'0 0.0
2017-Apr-13 05:00N 52°28' E 004°35'0 0.0
2017-Apr-13 04:30N 52°28' E 004°35'0 0.0
2017-Apr-13 04:00N 52°28' E 004°35'0 0.0
2017-Apr-13 03:30N 52°28' E 004°35'0 0.0
2017-Apr-13 03:00N 52°28' E 004°35'0 0.0
2017-Apr-13 02:30N 52°28' E 004°35'0 0.0
2017-Apr-13 02:00N 52°28' E 004°35'0 0.0
2017-Apr-13 01:30N 52°28' E 004°35'0 0.0
2017-Apr-13 01:00N 52°28' E 004°35'0 0.0
2017-Apr-13 00:30N 52°28' E 004°35'0 0.0
2017-Apr-13 00:00N 52°28' E 004°35'0 0.0
2017-Apr-12 23:30N 52°28' E 004°35'0 0.0
2017-Apr-12 23:00N 52°28' E 004°35'0 0.0
2017-Apr-12 22:30N 52°28' E 004°35'0 0.0
2017-Apr-12 22:00N 52°28' E 004°35'0 0.0
2017-Apr-12 21:30N 52°28' E 004°35'0 0.0
2017-Apr-12 21:00N 52°28' E 004°35'0 0.0
2017-Apr-12 20:30N 52°28' E 004°35'0 0.0
2017-Apr-12 20:00N 52°28' E 004°35'0 0.0
2017-Apr-12 19:30N 52°28' E 004°35'0 0.0
2017-Apr-12 19:00N 52°28' E 004°35'0 0.0
2017-Apr-12 18:30N 52°28' E 004°35'0 0.0
2017-Apr-12 18:00N 52°28' E 004°35'0 0.0
2017-Apr-12 17:30N 52°28' E 004°35'0 0.0
2017-Apr-12 17:00N 52°28' E 004°35'0 0.0
2017-Apr-12 16:30N 52°28' E 004°35'0 0.0
2017-Apr-12 16:00N 52°28' E 004°35'0 0.0
2017-Apr-12 15:30N 52°28' E 004°35'0 0.0
2017-Apr-12 15:00N 52°28' E 004°35'0 0.0
2017-Apr-12 14:30N 52°28' E 004°35'0 0.0
2017-Apr-12 13:30N 52°28' E 004°35'0 0.0
2017-Apr-12 13:00N 52°28' E 004°35'0 0.0
2017-Apr-12 12:30N 52°28' E 004°35'0 0.0
2017-Apr-12 12:00N 52°28' E 004°35'0 0.0
2017-Apr-12 11:30N 52°28' E 004°35'0 0.0
2017-Apr-12 11:00N 52°28' E 004°35'0 0.0
2017-Apr-12 10:30N 52°28' E 004°35'0 0.0
2017-Apr-12 10:00N 52°28' E 004°35'0 0.0
2017-Apr-12 09:30N 52°28' E 004°35'0 0.0
2017-Apr-12 09:00N 52°28' E 004°35'0 0.0
2017-Apr-12 08:30N 52°28' E 004°35'0 0.0
2017-Apr-12 08:00N 52°28' E 004°35'0 0.0
2017-Apr-12 07:30N 52°28' E 004°35'0 0.0
2017-Apr-12 07:00N 52°28' E 004°35'0 0.0
2017-Apr-12 06:30N 52°28' E 004°35'0 0.0
2017-Apr-12 06:00N 52°28' E 004°35'0 0.0
2017-Apr-11 16:33N 52°28' E 004°35'0 0.0
2017-Apr-11 16:30N 52°28' E 004°35'0 0.0
2017-Apr-11 16:00N 52°28' E 004°35'0 0.0
2017-Apr-11 15:30N 52°28' E 004°35'0 0.0
2017-Apr-11 15:00N 52°28' E 004°35'0 0.0
2017-Apr-11 14:30N 52°28' E 004°35'0 0.0
2017-Apr-11 13:30N 52°28' E 004°35'0 0.0
2017-Apr-11 13:00N 52°28' E 004°35'0 0.0
2017-Apr-11 12:30N 52°28' E 004°35'0 0.0
2017-Apr-11 12:00N 52°28' E 004°35'0 0.0
2017-Apr-11 11:30N 52°28' E 004°35'0 0.0
2017-Apr-11 11:00N 52°28' E 004°35'0 0.0
2017-Apr-11 10:30N 52°28' E 004°35'0 0.0
2017-Apr-11 10:00N 52°28' E 004°35'0 0.0
2017-Apr-11 09:00N 52°28' E 004°35'0 0.0
2017-Apr-11 08:30N 52°28' E 004°35'0 0.0
2017-Apr-11 08:00N 52°28' E 004°35'0 0.0
2017-Apr-11 07:30N 52°28' E 004°35'0 0.0
2017-Apr-11 07:00N 52°28' E 004°35'0 0.0
2017-Apr-11 06:30N 52°28' E 004°35'0 0.0
2017-Apr-11 06:00N 52°28' E 004°35'0 0.0
2017-Apr-11 05:29N 52°28' E 004°35'0 0.0
2017-Apr-11 05:00N 52°28' E 004°35'0 0.0
2017-Apr-11 04:30N 52°28' E 004°35'0 0.0
2017-Apr-11 04:00N 52°28' E 004°35'0 0.0
2017-Apr-11 03:30N 52°28' E 004°35'0 0.0
2017-Apr-11 03:00N 52°28' E 004°35'0 0.0
2017-Apr-11 02:30N 52°28' E 004°35'0 0.0
2017-Apr-11 02:00N 52°28' E 004°35'0 0.0
2017-Apr-11 01:30N 52°28' E 004°35'0 0.0
2017-Apr-11 01:00N 52°28' E 004°35'0 0.0
2017-Apr-11 00:30N 52°28' E 004°35'0 0.0
2017-Apr-11 00:00N 52°28' E 004°35'0 0.0
2017-Apr-10 23:30N 52°28' E 004°35'0 0.0
2017-Apr-10 23:00N 52°28' E 004°35'0 0.0
2017-Apr-10 22:30N 52°28' E 004°35'0 0.0
2017-Apr-10 22:00N 52°28' E 004°35'0 0.0
2017-Apr-10 21:30N 52°28' E 004°35'0 0.0
2017-Apr-10 20:59N 52°28' E 004°35'0 0.0
2017-Apr-10 20:30N 52°28' E 004°35'0 0.0
2017-Apr-10 20:00N 52°28' E 004°35'0 0.0
2017-Apr-10 19:30N 52°28' E 004°35'0 0.0
2017-Apr-10 19:00N 52°28' E 004°35'0 0.0
2017-Apr-10 18:30N 52°28' E 004°35'0 0.0
2017-Apr-10 18:00N 52°28' E 004°35'0 0.0
2017-Apr-10 17:00N 52°28' E 004°35'0 0.0
2017-Apr-10 16:30N 52°28' E 004°35'0 0.0
2017-Apr-10 16:00N 52°28' E 004°35'0 0.0
2017-Apr-10 15:30N 52°28' E 004°35'0 0.0
2017-Apr-10 15:00N 52°28' E 004°35'0 0.0
2017-Apr-10 14:30N 52°28' E 004°35'0 0.0
2017-Apr-10 13:30N 52°28' E 004°35'0 0.0
2017-Apr-10 13:00N 52°28' E 004°35'0 0.0
2017-Apr-10 12:30N 52°28' E 004°35'0 0.0
2017-Apr-10 12:00N 52°28' E 004°35'0 0.0
2017-Apr-10 11:30N 52°28' E 004°35'0 0.0
2017-Apr-10 11:00N 52°28' E 004°35'0 0.0
2017-Apr-10 10:30N 52°28' E 004°35'0 0.0
2017-Apr-10 10:00N 52°28' E 004°35'0 0.0
2017-Apr-10 09:30N 52°28' E 004°35'0 0.0
2017-Apr-10 09:00N 52°28' E 004°35'0 0.0
2017-Apr-10 08:30N 52°28' E 004°35'0 0.0
2017-Apr-10 08:00N 52°28' E 004°35'0 0.0
2017-Apr-10 07:30N 52°28' E 004°35'0 0.0
2017-Apr-10 07:00N 52°28' E 004°35'0 0.0
2017-Apr-10 06:30N 52°28' E 004°35'0 0.0
2017-Apr-10 06:00N 52°28' E 004°35'0 0.0
2017-Apr-10 05:30N 52°28' E 004°35'0 0.0
2017-Apr-10 05:00N 52°28' E 004°35'0 0.0
2017-Apr-10 04:30N 52°28' E 004°35'0 0.0
2017-Apr-10 04:00N 52°28' E 004°35'0 0.0
2017-Apr-10 03:30N 52°28' E 004°35'0 0.0
2017-Apr-10 03:00N 52°28' E 004°35'0 0.0
2017-Apr-10 02:30N 52°28' E 004°35'0 0.0
2017-Apr-10 02:00N 52°28' E 004°35'0 0.0
2017-Apr-10 01:30N 52°28' E 004°35'0 0.0
2017-Apr-10 01:00N 52°28' E 004°35'0 0.0
2017-Apr-10 00:30N 52°28' E 004°35'0 0.0
2017-Apr-10 00:00N 52°28' E 004°35'0 0.0
2017-Apr-09 23:30N 52°28' E 004°35'0 0.0
2017-Apr-09 23:00N 52°28' E 004°35'0 0.0
2017-Apr-09 22:30N 52°28' E 004°35'0 0.0
2017-Apr-09 22:00N 52°28' E 004°35'0 0.0
2017-Apr-09 21:30N 52°28' E 004°35'0 0.0
2017-Apr-09 21:00N 52°28' E 004°35'  

Dump ship's entire track history